createdAt,value
2018-03-26T00:00:17.832Z,22.37
2018-03-26T00:01:23.640Z,21.73
2018-03-26T00:02:29.607Z,20.65
2018-03-26T00:03:35.332Z,20.70
2018-03-26T00:04:41.882Z,20.48
2018-03-26T00:05:47.664Z,20.52
2018-03-26T00:06:53.445Z,21.80
2018-03-26T00:07:59.221Z,22.42
2018-03-26T00:09:04.836Z,23.10
2018-03-26T00:10:11.378Z,24.10
2018-03-26T00:11:17.189Z,22.55
2018-03-26T00:12:23.025Z,20.50
2018-03-26T00:13:28.865Z,21.55
2018-03-26T00:14:34.723Z,20.92
2018-03-26T00:15:40.487Z,22.23
2018-03-26T00:16:46.243Z,22.17
2018-03-26T00:17:52.002Z,23.48
2018-03-26T00:18:58.553Z,22.60
2018-03-26T00:20:04.263Z,22.77
2018-03-26T00:21:10.014Z,21.48
2018-03-26T00:22:15.820Z,21.92
2018-03-26T00:23:21.560Z,20.40
2018-03-26T00:24:27.314Z,24.63
2018-03-26T00:25:33.080Z,23.83
2018-03-26T00:26:38.797Z,24.25
2018-03-26T00:27:44.548Z,23.10
2018-03-26T00:28:50.370Z,21.95
2018-03-26T00:29:56.281Z,21.73
2018-03-26T00:31:02.788Z,22.73
2018-03-26T00:32:08.577Z,23.25
2018-03-26T00:33:15.068Z,23.80
2018-03-26T00:34:20.786Z,23.77
2018-03-26T00:35:26.589Z,23.67
2018-03-26T00:36:32.313Z,22.50
2018-03-26T00:37:38.029Z,21.75
2018-03-26T00:38:43.743Z,24.10
2018-03-26T00:39:50.229Z,22.83
2018-03-26T00:40:55.956Z,25.08
2018-03-26T00:42:02.449Z,22.60
2018-03-26T00:43:08.178Z,22.73
2018-03-26T00:44:13.901Z,22.27
2018-03-26T00:45:19.627Z,21.10
2018-03-26T00:46:26.121Z,23.42
2018-03-26T00:47:31.833Z,23.30
2018-03-26T00:48:38.313Z,24.27
2018-03-26T00:49:44.021Z,24.52
2018-03-26T00:50:50.501Z,22.35
2018-03-26T00:51:57.017Z,24.02
2018-03-26T00:53:02.720Z,23.00
2018-03-26T00:54:08.492Z,22.48
2018-03-26T00:55:14.209Z,24.02
2018-03-26T00:56:19.935Z,24.12
2018-03-26T00:57:25.681Z,24.52
2018-03-26T00:58:31.400Z,23.50
2018-03-26T00:59:37.869Z,21.58
2018-03-26T01:00:43.580Z,23.30
2018-03-26T01:01:50.127Z,23.23
2018-03-26T01:02:56.452Z,23.67
2018-03-26T01:04:02.178Z,23.48
2018-03-26T01:05:07.908Z,23.12
2018-03-26T01:06:13.638Z,23.90
2018-03-26T01:07:20.115Z,23.48
2018-03-26T01:08:25.623Z,24.58
2018-03-26T01:09:32.207Z,23.02
2018-03-26T01:10:37.914Z,24.77
2018-03-26T01:11:43.627Z,24.17
2018-03-26T01:12:49.343Z,24.33
2018-03-26T01:13:55.087Z,26.25
2018-03-26T01:15:00.851Z,25.48
2018-03-26T01:16:06.570Z,24.25
2018-03-26T01:17:12.303Z,23.70
2018-03-26T01:18:18.090Z,25.27
2018-03-26T01:19:23.819Z,23.15
2018-03-26T01:20:29.521Z,24.70
2018-03-26T01:21:35.233Z,23.23
2018-03-26T01:22:41.713Z,23.77
2018-03-26T01:23:47.420Z,24.48
2018-03-26T01:24:53.934Z,23.10
2018-03-26T01:25:59.681Z,22.20
2018-03-26T01:27:05.061Z,24.27
2018-03-26T01:28:11.533Z,23.15
2018-03-26T01:29:17.237Z,23.98
2018-03-26T01:30:22.993Z,23.02
2018-03-26T01:31:29.477Z,23.83
2018-03-26T01:32:35.985Z,23.98
2018-03-26T01:33:41.693Z,24.50
2018-03-26T01:34:47.406Z,24.25
2018-03-26T01:35:53.908Z,24.75
2018-03-26T01:36:59.726Z,23.50
2018-03-26T01:38:05.097Z,23.12
2018-03-26T01:39:10.813Z,23.60
2018-03-26T01:40:16.521Z,23.55
2018-03-26T01:41:23.020Z,24.75
2018-03-26T01:42:28.744Z,22.83
2018-03-26T01:43:34.461Z,23.73
2018-03-26T01:44:40.938Z,23.67
2018-03-26T01:45:46.652Z,23.25
2018-03-26T01:46:53.186Z,22.87
2018-03-26T01:47:58.906Z,23.05
2018-03-26T01:49:04.630Z,23.67
2018-03-26T01:50:10.150Z,24.00
2018-03-26T01:51:15.860Z,23.77
2018-03-26T01:52:21.595Z,24.52
2018-03-26T01:53:27.383Z,22.20
2018-03-26T01:54:33.080Z,22.55
2018-03-26T01:55:38.793Z,24.70
2018-03-26T01:56:44.515Z,24.17
2018-03-26T01:57:50.269Z,23.55
2018-03-26T01:58:56.046Z,23.27
2018-03-26T02:00:01.759Z,25.42
2018-03-26T02:01:07.475Z,24.40
2018-03-26T02:02:13.189Z,24.65
2018-03-26T02:03:19.708Z,23.10
2018-03-26T02:04:25.403Z,23.70
2018-03-26T02:05:30.927Z,24.10
2018-03-26T02:06:37.409Z,23.45
2018-03-26T02:07:43.113Z,22.70
2018-03-26T02:08:49.607Z,22.25
2018-03-26T02:09:55.314Z,25.05
2018-03-26T02:11:01.809Z,22.98
2018-03-26T02:12:07.639Z,24.87
2018-03-26T02:13:13.340Z,21.60
2018-03-26T02:14:19.090Z,22.80
2018-03-26T02:15:24.807Z,23.30
2018-03-26T02:16:30.516Z,22.20
2018-03-26T02:17:36.230Z,22.60
2018-03-26T02:18:42.702Z,25.15
2018-03-26T02:19:48.453Z,24.08
2018-03-26T02:20:54.182Z,22.02
2018-03-26T02:21:59.916Z,22.42
2018-03-26T02:23:06.405Z,23.42
2018-03-26T02:24:12.118Z,22.98
2018-03-26T02:25:18.606Z,23.45
2018-03-26T02:26:24.324Z,22.73
2018-03-26T02:27:30.045Z,24.00
2018-03-26T02:28:36.539Z,23.58
2018-03-26T02:29:42.240Z,24.85
2018-03-26T02:30:48.752Z,24.20
2018-03-26T02:31:54.464Z,22.73
2018-03-26T02:33:00.187Z,23.00
2018-03-26T02:34:06.679Z,24.95
2018-03-26T02:35:13.160Z,23.50
2018-03-26T02:36:18.906Z,23.95
2018-03-26T02:37:24.604Z,24.52
2018-03-26T02:38:30.313Z,25.30
2018-03-26T02:39:36.825Z,22.55
2018-03-26T02:40:42.545Z,23.15
2018-03-26T02:41:49.093Z,24.50
2018-03-26T02:42:54.813Z,22.33
2018-03-26T02:44:00.541Z,23.85
2018-03-26T02:45:07.531Z,21.92
2018-03-26T02:46:13.458Z,23.48
2018-03-26T02:47:19.187Z,22.02
2018-03-26T02:48:24.902Z,23.42
2018-03-26T02:49:30.656Z,23.20
2018-03-26T02:50:36.366Z,22.52
2018-03-26T02:51:42.086Z,24.37
2018-03-26T02:52:48.614Z,23.40
2018-03-26T02:53:54.329Z,22.13
2018-03-26T02:55:00.050Z,24.23
2018-03-26T02:56:05.764Z,23.52
2018-03-26T02:57:12.259Z,20.85
2018-03-26T02:58:17.993Z,24.10
2018-03-26T02:59:23.714Z,23.70
2018-03-26T03:00:30.197Z,24.70
2018-03-26T03:01:35.702Z,22.75
2018-03-26T03:02:41.635Z,23.05
2018-03-26T03:03:48.178Z,25.15
2018-03-26T03:04:53.897Z,24.15
2018-03-26T03:05:59.600Z,25.23
2018-03-26T03:07:05.329Z,22.52
2018-03-26T03:08:11.810Z,25.52
2018-03-26T03:09:17.550Z,22.90
2018-03-26T03:10:23.284Z,22.83
2018-03-26T03:11:29.018Z,24.40
2018-03-26T03:12:34.750Z,24.12
2018-03-26T03:13:41.230Z,24.25
2018-03-26T03:14:46.952Z,22.52
2018-03-26T03:15:53.429Z,23.50
2018-03-26T03:16:59.146Z,24.17
2018-03-26T03:18:04.897Z,23.05
2018-03-26T03:19:11.377Z,23.80
2018-03-26T03:20:17.129Z,23.62
2018-03-26T03:21:22.828Z,24.45
2018-03-26T03:22:29.309Z,24.05
2018-03-26T03:23:35.023Z,24.12
2018-03-26T03:24:41.516Z,24.15
2018-03-26T03:25:47.500Z,24.67
2018-03-26T03:26:53.017Z,25.95
2018-03-26T03:27:58.732Z,24.33
2018-03-26T03:29:04.164Z,24.98
2018-03-26T03:30:09.880Z,23.55
2018-03-26T03:31:16.389Z,23.25
2018-03-26T03:32:22.115Z,24.15
2018-03-26T03:33:27.837Z,25.25
2018-03-26T03:34:33.556Z,24.67
2018-03-26T03:35:40.055Z,23.25
2018-03-26T03:36:45.779Z,24.08
2018-03-26T03:37:51.484Z,24.60
2018-03-26T03:38:57.201Z,24.45
2018-03-26T03:40:02.901Z,25.05
2018-03-26T03:41:08.629Z,24.42
2018-03-26T03:42:15.137Z,26.00
2018-03-26T03:43:20.844Z,25.85
2018-03-26T03:44:26.544Z,25.98
2018-03-26T03:45:32.273Z,24.85
2018-03-26T03:46:37.981Z,23.85
2018-03-26T03:47:43.730Z,24.95
2018-03-26T03:48:49.445Z,24.92
2018-03-26T03:49:55.158Z,24.70
2018-03-26T03:51:00.865Z,24.40
2018-03-26T03:52:06.568Z,27.17
2018-03-26T03:53:12.312Z,26.60
2018-03-26T03:54:17.876Z,24.87
2018-03-26T03:55:23.578Z,26.05
2018-03-26T03:56:30.055Z,24.52
2018-03-26T03:57:35.769Z,23.15
2018-03-26T03:58:42.263Z,24.42
2018-03-26T03:59:47.978Z,25.65
2018-03-26T04:00:53.693Z,25.05
2018-03-26T04:01:59.405Z,24.30
2018-03-26T04:03:04.802Z,25.12
2018-03-26T04:04:10.545Z,24.45
2018-03-26T04:05:16.255Z,25.12
2018-03-26T04:06:22.753Z,24.83
2018-03-26T04:07:28.466Z,22.98
2018-03-26T04:08:34.188Z,25.37
2018-03-26T04:09:39.937Z,25.20
2018-03-26T04:10:45.676Z,24.73
2018-03-26T04:11:52.154Z,26.45
2018-03-26T04:12:57.865Z,23.90
2018-03-26T04:14:03.576Z,24.85
2018-03-26T04:15:09.338Z,24.90
2018-03-26T04:16:15.175Z,25.35
2018-03-26T04:17:21.078Z,25.02
2018-03-26T04:18:26.936Z,25.52
2018-03-26T04:19:32.639Z,25.08
2018-03-26T04:20:38.815Z,25.80
2018-03-26T04:21:44.517Z,24.85
2018-03-26T04:22:51.015Z,25.40
2018-03-26T04:23:56.729Z,26.50
2018-03-26T04:25:03.261Z,25.88
2018-03-26T04:26:08.985Z,29.50
2018-03-26T04:27:14.727Z,25.17
2018-03-26T04:28:20.927Z,26.70
2018-03-26T04:29:27.408Z,27.37
2018-03-26T04:30:32.772Z,25.88
2018-03-26T04:31:38.498Z,26.40
2018-03-26T04:32:44.194Z,26.27
2018-03-26T04:33:50.680Z,24.10
2018-03-26T04:34:56.406Z,24.95
2018-03-26T04:36:02.116Z,24.65
2018-03-26T04:37:07.879Z,24.65
2018-03-26T04:38:13.593Z,25.00
2018-03-26T04:39:19.296Z,24.30
2018-03-26T04:40:25.000Z,24.70
2018-03-26T04:41:31.487Z,24.58
2018-03-26T04:42:37.215Z,23.00
2018-03-26T04:43:42.940Z,23.05
2018-03-26T04:44:50.397Z,26.30
2018-03-26T04:45:56.624Z,25.20
2018-03-26T04:47:02.347Z,25.00
2018-03-26T04:48:08.088Z,24.65
2018-03-26T04:49:13.788Z,25.90
2018-03-26T04:50:20.307Z,25.92
2018-03-26T04:51:26.967Z,25.12
2018-03-26T04:52:32.760Z,25.10
2018-03-26T04:53:39.276Z,24.80
2018-03-26T04:54:44.986Z,25.23
2018-03-26T04:55:50.717Z,25.10
2018-03-26T04:56:57.420Z,26.25
2018-03-26T04:58:03.165Z,24.83
2018-03-26T04:59:09.674Z,24.98
2018-03-26T05:00:15.401Z,25.02
2018-03-26T05:01:21.895Z,23.77
2018-03-26T05:02:27.635Z,24.35
2018-03-26T05:03:37.346Z,23.27
2018-03-26T05:04:43.117Z,22.75
2018-03-26T05:05:49.607Z,27.70
2018-03-26T05:06:55.329Z,25.52
2018-03-26T05:08:00.846Z,25.58
2018-03-26T05:09:05.650Z,25.40
2018-03-26T05:10:11.388Z,25.67
2018-03-26T05:11:16.908Z,27.98
2018-03-26T05:12:23.433Z,28.23
2018-03-26T05:13:29.147Z,25.48
2018-03-26T05:14:35.278Z,26.48
2018-03-26T05:15:41.018Z,27.27
2018-03-26T05:16:46.716Z,26.45
2018-03-26T05:17:52.417Z,27.15
2018-03-26T05:18:58.141Z,24.75
2018-03-26T05:20:03.834Z,27.45
2018-03-26T05:21:09.560Z,27.33
2018-03-26T05:22:15.277Z,25.05
2018-03-26T05:23:20.774Z,26.00
2018-03-26T05:24:27.279Z,28.02
2018-03-26T05:25:32.976Z,28.75
2018-03-26T05:26:39.512Z,27.15
2018-03-26T05:27:45.232Z,25.45
2018-03-26T05:28:50.945Z,26.15
2018-03-26T05:29:56.673Z,26.48
2018-03-26T05:31:03.208Z,25.35
2018-03-26T05:32:09.197Z,26.23
2018-03-26T05:33:14.950Z,25.08
2018-03-26T05:34:20.661Z,25.88
2018-03-26T05:35:26.374Z,25.17
2018-03-26T05:36:32.916Z,26.10
2018-03-26T05:37:38.639Z,26.20
2018-03-26T05:38:44.353Z,25.02
2018-03-26T05:39:50.065Z,24.30
2018-03-26T05:40:55.780Z,25.35
2018-03-26T05:42:01.773Z,25.10
2018-03-26T05:43:07.829Z,26.90
2018-03-26T05:44:14.964Z,25.45
2018-03-26T05:45:20.685Z,25.48
2018-03-26T05:46:26.476Z,26.85
2018-03-26T05:47:32.641Z,26.95
2018-03-26T05:48:38.366Z,25.65
2018-03-26T05:49:44.116Z,26.73
2018-03-26T05:50:49.840Z,27.13
2018-03-26T05:51:56.307Z,26.00
2018-03-26T05:53:02.031Z,27.42
2018-03-26T05:54:08.545Z,28.15
2018-03-26T05:55:14.249Z,26.15
2018-03-26T05:56:19.952Z,26.15
2018-03-26T05:57:25.659Z,24.48
2018-03-26T05:58:31.355Z,25.50
2018-03-26T05:59:37.828Z,25.77
2018-03-26T06:00:43.573Z,24.70
2018-03-26T06:01:49.276Z,25.52
2018-03-26T06:02:54.788Z,26.67
2018-03-26T06:04:00.488Z,27.75
2018-03-26T06:05:06.228Z,26.62
2018-03-26T06:06:11.621Z,28.87
2018-03-26T06:07:18.842Z,25.50
2018-03-26T06:08:24.541Z,25.48
2018-03-26T06:09:30.241Z,25.23
2018-03-26T06:10:35.975Z,24.17
2018-03-26T06:11:41.668Z,26.87
2018-03-26T06:12:48.171Z,27.00
2018-03-26T06:13:54.165Z,27.75
2018-03-26T06:15:00.354Z,25.12
2018-03-26T06:16:05.788Z,26.15
2018-03-26T06:17:15.872Z,26.75
2018-03-26T06:18:21.450Z,28.30
2018-03-26T06:19:27.766Z,26.48
2018-03-26T06:20:33.276Z,25.73
2018-03-26T06:21:38.822Z,25.37
2018-03-26T06:22:44.339Z,24.70
2018-03-26T06:23:49.852Z,24.92
2018-03-26T06:24:56.156Z,24.10
2018-03-26T06:26:01.900Z,24.30
2018-03-26T06:27:07.501Z,24.55
2018-03-26T06:28:13.768Z,24.30
2018-03-26T06:29:19.390Z,24.52
2018-03-26T06:30:24.909Z,24.30
2018-03-26T06:31:31.318Z,24.05
2018-03-26T06:32:36.921Z,24.40
2018-03-26T06:33:42.444Z,23.80
2018-03-26T06:34:48.724Z,24.30
2018-03-26T06:35:54.118Z,24.65
2018-03-26T06:38:52.356Z,25.92
2018-03-26T06:39:58.126Z,24.90
2018-03-26T06:41:03.692Z,24.55
2018-03-26T06:42:10.160Z,25.58
2018-03-26T06:43:15.884Z,24.37
2018-03-26T06:44:22.375Z,25.35
2018-03-26T06:45:28.081Z,24.63
2018-03-26T06:46:34.553Z,24.48
2018-03-26T06:47:40.252Z,25.75
2018-03-26T06:48:45.990Z,24.95
2018-03-26T06:49:51.776Z,23.62
2018-03-26T06:50:57.689Z,23.95
2018-03-26T06:52:04.586Z,23.95
2018-03-26T06:53:10.309Z,23.67
2018-03-26T06:54:16.785Z,24.00
2018-03-26T06:55:22.941Z,25.60
2018-03-26T06:56:28.664Z,25.33
2018-03-26T06:57:35.141Z,25.05
2018-03-26T06:58:40.868Z,24.60
2018-03-26T06:59:46.611Z,24.20
2018-03-26T07:00:53.104Z,25.88
2018-03-26T07:01:58.836Z,23.90
2018-03-26T07:03:04.565Z,25.48
2018-03-26T07:04:10.277Z,24.05
2018-03-26T07:05:16.761Z,23.98
2018-03-26T07:06:22.503Z,23.87
2018-03-26T07:07:28.204Z,25.33
2018-03-26T07:08:33.924Z,24.15
2018-03-26T07:09:39.622Z,26.25
2018-03-26T07:10:45.328Z,24.25
2018-03-26T07:11:51.073Z,24.08
2018-03-26T07:12:57.769Z,23.77
2018-03-26T07:14:03.488Z,25.45
2018-03-26T07:15:09.773Z,24.92
2018-03-26T07:16:15.668Z,24.73
2018-03-26T07:17:21.400Z,25.75
2018-03-26T07:18:27.878Z,25.48
2018-03-26T07:19:33.622Z,26.92
2018-03-26T07:20:39.333Z,25.85
2018-03-26T07:21:45.049Z,25.33
2018-03-26T07:22:50.773Z,25.40
2018-03-26T07:23:56.492Z,25.08
2018-03-26T07:25:02.215Z,25.98
2018-03-26T07:26:08.760Z,24.35
2018-03-26T07:27:14.529Z,24.45
2018-03-26T07:28:21.115Z,24.20
2018-03-26T07:29:26.832Z,24.98
2018-03-26T07:30:33.318Z,25.92
2018-03-26T07:31:39.035Z,24.00
2018-03-26T07:32:45.535Z,24.75
2018-03-26T07:33:51.296Z,25.60
2018-03-26T07:34:57.059Z,24.73
2018-03-26T07:36:02.780Z,25.90
2018-03-26T07:37:08.508Z,23.83
2018-03-26T07:38:14.220Z,25.73
2018-03-26T07:39:20.934Z,25.20
2018-03-26T07:40:26.658Z,24.83
2018-03-26T07:41:32.388Z,25.30
2018-03-26T07:42:38.208Z,26.52
2018-03-26T07:43:43.969Z,25.58
2018-03-26T07:44:49.709Z,26.77
2018-03-26T07:45:55.431Z,24.02
2018-03-26T07:47:01.171Z,25.00
2018-03-26T07:48:06.896Z,25.05
2018-03-26T07:49:14.110Z,26.05
2018-03-26T07:50:19.865Z,24.08
2018-03-26T07:51:25.574Z,26.27
2018-03-26T07:52:31.298Z,26.30
2018-03-26T07:53:37.850Z,26.05
2018-03-26T07:54:43.733Z,27.83
2018-03-26T07:55:49.461Z,26.30
2018-03-26T07:56:55.177Z,27.58
2018-03-26T07:58:01.667Z,26.77
2018-03-26T07:59:07.378Z,26.92
2018-03-26T08:00:13.662Z,28.33
2018-03-26T08:01:19.397Z,25.80
2018-03-26T08:02:25.104Z,26.48
2018-03-26T08:03:30.859Z,27.23
2018-03-26T08:04:37.324Z,26.60
2018-03-26T08:05:43.072Z,27.85
2018-03-26T08:06:48.472Z,28.10
2018-03-26T08:07:54.191Z,27.13
2018-03-26T08:08:59.884Z,26.40
2018-03-26T08:10:06.021Z,26.35
2018-03-26T08:11:12.305Z,28.35
2018-03-26T08:12:18.134Z,27.05
2018-03-26T08:13:23.501Z,27.50
2018-03-26T08:14:29.219Z,25.58
2018-03-26T08:15:34.932Z,27.80
2018-03-26T08:16:41.407Z,26.35
2018-03-26T08:17:47.121Z,25.83
2018-03-26T08:18:53.601Z,27.90
2018-03-26T08:19:59.320Z,27.85
2018-03-26T08:21:05.789Z,28.95
2018-03-26T08:22:12.313Z,32.83
2018-03-26T08:23:18.041Z,32.13
2018-03-26T08:24:23.760Z,28.98
2018-03-26T08:25:29.685Z,27.40
2018-03-26T08:26:36.162Z,26.87
2018-03-26T08:27:41.885Z,27.50
2018-03-26T08:28:47.608Z,28.25
2018-03-26T08:29:54.093Z,30.55
2018-03-26T08:30:59.868Z,27.33
2018-03-26T08:32:06.500Z,27.90
2018-03-26T08:33:12.208Z,29.75
2018-03-26T08:34:18.708Z,27.15
2018-03-26T08:35:24.492Z,29.95
2018-03-26T08:36:30.239Z,28.52
2018-03-26T08:37:36.149Z,29.10
2018-03-26T08:38:41.938Z,29.40
2018-03-26T08:39:48.441Z,29.40
2018-03-26T08:40:54.149Z,28.40
2018-03-26T08:41:59.868Z,33.00
2018-03-26T08:43:06.145Z,29.60
2018-03-26T08:44:11.865Z,28.73
2018-03-26T08:45:18.376Z,28.58
2018-03-26T08:46:23.769Z,29.70
2018-03-26T08:47:30.250Z,31.05
2018-03-26T08:48:35.990Z,30.00
2018-03-26T08:49:41.810Z,28.12
2018-03-26T08:50:47.746Z,28.33
2018-03-26T08:51:53.448Z,28.67
2018-03-26T08:52:59.165Z,30.15
2018-03-26T08:54:04.901Z,28.92
2018-03-26T08:55:10.620Z,30.35
2018-03-26T08:56:17.181Z,29.08
2018-03-26T08:57:23.037Z,28.45
2018-03-26T08:58:28.760Z,29.37
2018-03-26T08:59:35.244Z,27.37
2018-03-26T09:00:40.979Z,30.17
2018-03-26T09:01:46.724Z,29.85
2018-03-26T09:02:52.457Z,29.83
2018-03-26T09:03:58.204Z,29.92
2018-03-26T09:05:03.932Z,29.37
2018-03-26T09:06:10.229Z,29.12
2018-03-26T09:07:15.998Z,29.65
2018-03-26T09:08:23.427Z,30.73
2018-03-26T09:09:29.163Z,31.02
2018-03-26T09:10:34.904Z,28.90
2018-03-26T09:11:40.612Z,29.42
2018-03-26T09:12:46.157Z,28.08
2018-03-26T09:13:51.884Z,31.45
2018-03-26T09:14:57.592Z,28.75
2018-03-26T09:16:03.309Z,30.20
2018-03-26T09:17:09.022Z,29.48
2018-03-26T09:18:15.532Z,31.17
2018-03-26T09:19:21.274Z,30.67
2018-03-26T09:20:27.015Z,30.52
2018-03-26T09:21:32.741Z,28.48
2018-03-26T09:22:38.457Z,29.60
2018-03-26T09:23:44.200Z,29.65
2018-03-26T09:24:49.911Z,28.15
2018-03-26T09:25:55.645Z,30.25
2018-03-26T09:27:02.883Z,31.25
2018-03-26T09:28:08.589Z,26.33
2018-03-26T09:29:15.105Z,31.85
2018-03-26T09:30:20.828Z,29.75
2018-03-26T09:31:26.542Z,28.73
2018-03-26T09:32:33.020Z,29.67
2018-03-26T09:33:38.732Z,28.15
2018-03-26T09:34:44.469Z,30.05
2018-03-26T09:35:50.961Z,30.00
2018-03-26T09:36:56.682Z,31.10
2018-03-26T09:38:02.389Z,31.08
2018-03-26T09:39:08.552Z,30.08
2018-03-26T09:40:15.119Z,31.27
2018-03-26T09:41:21.608Z,31.87
2018-03-26T09:42:27.317Z,31.08
2018-03-26T09:43:33.791Z,31.98
2018-03-26T09:44:39.501Z,32.05
2018-03-26T09:45:46.022Z,30.73
2018-03-26T09:46:51.747Z,30.17
2018-03-26T09:47:57.470Z,30.05
2018-03-26T09:49:03.179Z,30.60
2018-03-26T09:50:08.694Z,32.78
2018-03-26T09:51:14.422Z,32.85
2018-03-26T09:52:20.207Z,30.58
2018-03-26T09:53:26.742Z,30.05
2018-03-26T09:54:32.618Z,30.45
2018-03-26T09:55:39.124Z,29.87
2018-03-26T09:56:44.871Z,31.95
2018-03-26T09:57:50.592Z,30.92
2018-03-26T09:58:56.429Z,31.62
2018-03-26T10:00:02.139Z,32.60
2018-03-26T10:01:14.061Z,31.55
2018-03-26T10:02:19.804Z,32.65
2018-03-26T10:03:25.529Z,32.85
2018-03-26T10:04:31.265Z,30.90
2018-03-26T10:05:37.729Z,30.80
2018-03-26T10:06:43.439Z,30.33
2018-03-26T10:07:49.160Z,32.95
2018-03-26T10:08:54.872Z,31.10
2018-03-26T10:10:00.583Z,31.95
2018-03-26T10:11:07.148Z,31.85
2018-03-26T10:12:12.875Z,30.45
2018-03-26T10:13:19.370Z,31.87
2018-03-26T10:14:25.081Z,29.67
2018-03-26T10:15:31.570Z,32.25
2018-03-26T10:16:37.288Z,31.75
2018-03-26T10:17:43.051Z,31.30
2018-03-26T10:18:48.798Z,30.92
2018-03-26T10:19:54.521Z,30.55
2018-03-26T10:21:00.289Z,30.67
2018-03-26T10:22:05.997Z,31.45
2018-03-26T10:23:11.714Z,31.45
2018-03-26T10:24:18.220Z,31.45
2018-03-26T10:25:23.932Z,30.55
2018-03-26T10:26:29.653Z,28.95
2018-03-26T10:27:36.216Z,31.42
2018-03-26T10:28:42.753Z,29.75
2018-03-26T10:29:48.661Z,31.98
2018-03-26T10:30:54.949Z,28.83
2018-03-26T10:32:00.657Z,32.10
2018-03-26T10:33:06.377Z,29.95
2018-03-26T10:34:12.116Z,30.52
2018-03-26T10:35:17.852Z,30.95
2018-03-26T10:36:23.556Z,29.73
2018-03-26T10:37:29.283Z,31.35
2018-03-26T10:38:35.030Z,33.20
2018-03-26T10:39:40.760Z,30.83
2018-03-26T10:40:46.488Z,31.00
2018-03-26T10:41:52.092Z,30.60
2018-03-26T10:42:58.031Z,28.65
2018-03-26T10:44:04.506Z,28.10
2018-03-26T10:45:10.234Z,29.50
2018-03-26T10:46:16.174Z,31.50
2018-03-26T10:47:22.697Z,29.35
2018-03-26T10:48:29.171Z,28.60
2018-03-26T10:49:34.896Z,30.02
2018-03-26T10:50:40.604Z,28.77
2018-03-26T10:51:46.337Z,30.08
2018-03-26T10:52:52.045Z,34.67
2018-03-26T10:53:58.531Z,30.50
2018-03-26T10:55:04.248Z,28.80
2018-03-26T10:56:10.733Z,29.00
2018-03-26T10:57:16.473Z,29.10
2018-03-26T10:58:22.193Z,27.85
2018-03-26T10:59:28.491Z,29.60
2018-03-26T11:00:34.230Z,30.45
2018-03-26T11:01:39.956Z,29.20
2018-03-26T11:02:45.689Z,26.85
2018-03-26T11:03:51.428Z,28.62
2018-03-26T11:04:57.144Z,29.58
2018-03-26T11:06:03.634Z,28.98
2018-03-26T11:07:09.365Z,28.05
2018-03-26T11:08:15.107Z,29.00
2018-03-26T11:09:20.639Z,31.50
2018-03-26T11:10:26.362Z,27.25
2018-03-26T11:11:32.864Z,28.23
2018-03-26T11:12:38.584Z,27.55
2018-03-26T11:13:44.356Z,27.83
2018-03-26T11:14:50.068Z,29.10
2018-03-26T11:15:55.795Z,26.83
2018-03-26T11:17:02.353Z,28.27
2018-03-26T11:18:08.574Z,27.30
2018-03-26T11:19:14.317Z,28.70
2018-03-26T11:20:20.049Z,28.35
2018-03-26T11:21:25.781Z,29.25
2018-03-26T11:22:31.511Z,27.85
2018-03-26T11:23:37.988Z,27.10
2018-03-26T11:24:43.724Z,26.10
2018-03-26T11:25:49.466Z,29.33
2018-03-26T11:26:55.184Z,28.75
2018-03-26T11:28:01.073Z,26.12
2018-03-26T11:29:06.950Z,27.20
2018-03-26T11:30:13.461Z,25.52
2018-03-26T11:31:19.191Z,25.50
2018-03-26T11:32:24.928Z,25.27
2018-03-26T11:33:30.652Z,25.88
2018-03-26T11:34:36.386Z,25.50
2018-03-26T11:35:42.132Z,25.00
2018-03-26T11:36:47.862Z,26.85
2018-03-26T11:37:53.586Z,26.40
2018-03-26T11:39:00.069Z,25.55
2018-03-26T11:40:05.212Z,23.60
2018-03-26T11:41:10.965Z,25.65
2018-03-26T11:42:16.681Z,25.60
2018-03-26T11:43:23.215Z,27.55
2018-03-26T11:44:28.960Z,24.02
2018-03-26T11:45:34.716Z,21.55
2018-03-26T11:46:40.468Z,23.70
2018-03-26T11:47:46.212Z,23.50
2018-03-26T11:48:52.035Z,22.75
2018-03-26T11:49:57.768Z,22.25
2018-03-26T11:51:03.489Z,22.67
2018-03-26T11:52:10.021Z,22.25
2018-03-26T11:53:15.764Z,22.23
2018-03-26T11:54:21.704Z,21.87
2018-03-26T11:55:27.425Z,22.62
2018-03-26T11:56:33.161Z,21.73
2018-03-26T11:57:38.753Z,22.80
2018-03-26T11:58:45.243Z,23.23
2018-03-26T11:59:50.964Z,21.90
2018-03-26T12:00:57.445Z,23.17
2018-03-26T12:02:03.199Z,23.02
2018-03-26T12:03:08.994Z,21.20
2018-03-26T12:04:14.896Z,22.48
2018-03-26T12:05:20.617Z,21.67
2018-03-26T12:06:26.353Z,21.35
2018-03-26T12:07:32.068Z,20.52
2018-03-26T12:08:38.578Z,21.55
2018-03-26T12:09:44.317Z,21.60
2018-03-26T12:10:50.040Z,20.80
2018-03-26T12:11:55.771Z,24.27
2018-03-26T12:13:01.522Z,23.73
2018-03-26T12:14:08.262Z,20.27
2018-03-26T12:15:14.758Z,19.60
2018-03-26T12:16:21.248Z,20.00
2018-03-26T12:17:26.978Z,22.13
2018-03-26T12:18:32.713Z,20.40
2018-03-26T12:19:55.273Z,20.35
2018-03-26T12:21:01.056Z,20.67
2018-03-26T12:22:07.806Z,20.37
2018-03-26T12:23:31.201Z,21.40
2018-03-26T12:24:53.776Z,18.80
2018-03-26T12:25:59.518Z,20.45
2018-03-26T12:27:06.011Z,21.50
2018-03-26T12:28:28.648Z,22.33
2018-03-26T12:29:51.502Z,20.88
2018-03-26T12:30:57.248Z,19.75
2018-03-26T12:32:02.989Z,21.80
2018-03-26T12:33:08.717Z,20.98
2018-03-26T12:34:31.354Z,22.52
2018-03-26T12:36:00.013Z,21.05
2018-03-26T12:37:06.521Z,20.90
2018-03-26T12:38:12.348Z,23.00
2018-03-26T12:39:18.279Z,21.70
2018-03-26T12:40:41.096Z,20.98
2018-03-26T12:41:46.865Z,21.80
2018-03-26T12:42:52.630Z,21.02
2018-03-26T12:43:58.373Z,22.45
2018-03-26T12:46:49.967Z,24.05
2018-03-26T12:47:55.708Z,21.02
2018-03-26T12:49:01.423Z,21.62
2018-03-26T12:50:07.909Z,22.52
2018-03-26T12:51:30.547Z,22.45
2018-03-26T12:52:42.084Z,21.55
2018-03-26T12:53:47.801Z,21.92
2018-03-26T12:54:53.529Z,21.80
2018-03-26T12:56:00.030Z,23.33
2018-03-26T12:57:23.388Z,23.98
2018-03-26T12:58:42.647Z,22.25
2018-03-26T12:59:49.160Z,22.62
2018-03-26T13:01:11.858Z,22.67
2018-03-26T13:02:28.488Z,22.15
2018-03-26T13:03:34.217Z,22.08
2018-03-26T13:04:39.969Z,22.25
2018-03-26T13:05:45.689Z,22.17
2018-03-26T13:06:51.418Z,21.45
2018-03-26T13:07:57.170Z,21.58
2018-03-26T13:09:02.930Z,21.92
2018-03-26T13:10:08.718Z,20.62
2018-03-26T13:11:14.451Z,21.00
2018-03-26T13:12:20.184Z,21.40
2018-03-26T13:13:26.672Z,20.58
2018-03-26T13:14:33.172Z,21.17
2018-03-26T13:15:38.911Z,20.58
2018-03-26T13:16:44.622Z,21.15
2018-03-26T13:17:51.115Z,21.40
2018-03-26T13:18:56.877Z,19.95
2018-03-26T13:20:02.602Z,19.02
2018-03-26T13:21:08.352Z,18.73
2018-03-26T13:22:14.074Z,19.65
2018-03-26T13:23:19.796Z,18.95
2018-03-26T13:24:25.519Z,17.85
2018-03-26T13:25:32.218Z,19.50
2018-03-26T13:26:37.970Z,19.95
2018-03-26T13:27:43.701Z,21.40
2018-03-26T13:28:50.435Z,19.15
2018-03-26T13:29:56.421Z,20.77
2018-03-26T13:31:02.174Z,19.58
2018-03-26T13:32:07.921Z,20.52
2018-03-26T13:33:13.655Z,19.45
2018-03-26T13:34:19.464Z,19.48
2018-03-26T13:35:25.185Z,20.83
2018-03-26T13:36:31.725Z,19.25
2018-03-26T13:37:37.474Z,19.40
2018-03-26T13:38:43.972Z,19.58
2018-03-26T13:39:49.698Z,19.85
2018-03-26T13:40:55.424Z,20.50
2018-03-26T13:42:02.005Z,19.87
2018-03-26T13:43:07.785Z,21.37
2018-03-26T13:44:13.654Z,20.25
2018-03-26T13:45:20.149Z,20.85
2018-03-26T13:46:25.545Z,21.48
2018-03-26T13:47:31.318Z,22.02
2018-03-26T13:48:37.058Z,22.58
2018-03-26T13:49:42.876Z,20.83
2018-03-26T13:50:49.211Z,29.67
2018-03-26T13:51:54.979Z,20.55
2018-03-26T13:53:01.473Z,22.80
2018-03-26T13:54:06.699Z,20.80
2018-03-26T13:55:13.184Z,20.00
2018-03-26T13:56:18.910Z,19.73
2018-03-26T13:57:24.678Z,21.05
2018-03-26T13:58:30.476Z,22.05
2018-03-26T13:59:36.224Z,20.45
2018-03-26T14:00:43.542Z,21.15
2018-03-26T14:01:49.290Z,17.12
2018-03-26T14:02:55.015Z,19.55
2018-03-26T14:04:01.652Z,19.12
2018-03-26T14:05:07.512Z,21.27
2018-03-26T14:06:13.499Z,19.15
2018-03-26T14:07:20.608Z,20.37
2018-03-26T14:08:43.044Z,19.75
2018-03-26T14:10:05.833Z,19.40
2018-03-26T14:11:28.420Z,22.30
2018-03-26T14:12:51.101Z,19.42
2018-03-26T14:14:13.574Z,19.12
2018-03-26T14:15:36.244Z,19.25
2018-03-26T14:16:58.826Z,19.23
2018-03-26T14:18:06.348Z,18.77